Time;durP1;ratioP1;P1;durP2;ratioP2;P2;SDS_P1;SDS_P2;PMS_P1;PMS_P2;Temp;Humidity;BMP_temperature;BMP_pressure;BME280_temperature;BME280_humidity;BME280_pressure;Samples;Min_cycle;Max_cycle;Signal;HPM_P1;HPM_P2
2024/03/28 00:01:52;;;;;;;24.92;12.23;;;;;;;8.56;83.93;93610.28;5154753;27;20038;-66
2024/03/28 00:04:18;;;;;;;29.38;11.55;;;;;;;8.46;84.36;93576.66;5154967;27;20030;-66
2024/03/28 00:06:43;;;;;;;26.02;11.25;;;;;;;8.61;84.87;93584.75;5119534;27;20492;-66
2024/03/28 00:09:08;;;;;;;24.60;11.35;;;;;;;8.73;85.21;93599.16;5098215;27;20470;-66
2024/03/28 00:11:34;;;;;;;26.92;10.30;;;;;;;8.80;85.06;93584.66;5155006;27;20397;-66
2024/03/28 00:13:59;;;;;;;26.13;10.32;;;;;;;8.80;84.76;93589.81;5153689;27;20484;-66
2024/03/28 00:16:25;;;;;;;35.80;12.77;;;;;;;8.86;84.39;93591.84;5135996;27;20046;-66
2024/03/28 00:18:50;;;;;;;30.02;13.15;;;;;;;8.99;84.50;93577.72;5169844;27;20037;-66
2024/03/28 00:21:15;;;;;;;28.13;11.43;;;;;;;9.06;85.05;93583.94;5160867;27;20034;-66
2024/03/28 00:23:41;;;;;;;34.90;11.43;;;;;;;9.18;85.14;93587.94;5118729;27;20500;-66
2024/03/28 00:26:08;;;;;;;25.90;10.93;;;;;;;9.38;84.21;93589.41;5135907;27;20035;-66
2024/03/28 00:28:33;;;;;;;34.28;10.55;;;;;;;9.78;82.35;93580.31;5147176;27;20389;-66
2024/03/28 00:31:00;;;;;;;29.25;10.82;;;;;;;9.96;81.19;93576.84;5136058;27;21237;-66
2024/03/28 00:33:26;;;;;;;33.92;10.13;;;;;;;10.12;80.62;93586.53;5098401;27;20054;-66
2024/03/28 00:35:51;;;;;;;27.13;10.15;;;;;;;9.98;80.91;93573.13;5125484;27;20485;-66
2024/03/28 00:38:16;;;;;;;25.45;9.68;;;;;;;10.09;80.90;93582.44;5135573;27;20026;-66
2024/03/28 00:40:47;;;;;;;25.65;9.95;;;;;;;10.06;80.89;93582.75;5154768;27;20084;-66
2024/03/28 00:43:12;;;;;;;21.80;10.37;;;;;;;10.21;80.08;93580.41;5115213;27;20069;-66
2024/03/28 00:45:37;;;;;;;23.17;8.73;;;;;;;10.09;80.50;93587.63;5131480;27;20031;-66
2024/03/28 00:48:03;;;;;;;26.10;9.70;;;;;;;10.26;80.58;93589.34;5114785;27;20027;-66
2024/03/28 00:50:29;;;;;;;25.35;9.25;;;;;;;10.28;80.09;93592.63;5123444;27;20030;-66
2024/03/28 00:52:54;;;;;;;23.33;8.90;;;;;;;10.32;80.08;93580.16;5154353;27;20025;-66
2024/03/28 00:55:19;;;;;;;30.23;8.93;;;;;;;10.10;80.19;93591.84;5163833;27;20038;-66
2024/03/28 00:57:45;;;;;;;29.25;8.88;;;;;;;10.19;80.40;93577.94;5153439;27;20023;-66
2024/03/28 01:00:10;;;;;;;25.38;8.60;;;;;;;10.11;80.99;93575.31;5152862;27;20403;-66
2024/03/28 01:02:36;;;;;;;26.13;9.07;;;;;;;9.97;80.90;93555.13;5120481;27;20477;-66
2024/03/28 01:05:01;;;;;;;27.58;10.20;;;;;;;10.21;80.35;93577.81;5151297;27;20034;-66
2024/03/28 01:07:27;;;;;;;19.13;9.27;;;;;;;10.32;80.19;93576.75;5135513;27;20034;-67
2024/03/28 01:09:52;;;;;;;22.40;9.63;;;;;;;10.26;80.33;93568.59;5135249;27;20022;-66
2024/03/28 01:12:18;;;;;;;17.13;9.55;;;;;;;10.06;80.65;93580.16;5143405;27;20030;-66
2024/03/28 01:14:43;;;;;;;22.23;8.75;;;;;;;10.08;80.67;93554.84;5139369;27;20027;-66
2024/03/28 01:17:09;;;;;;;18.27;9.50;;;;;;;10.14;80.46;93558.63;5153751;27;20034;-66
2024/03/28 01:19:34;;;;;;;19.90;9.05;;;;;;;10.04;80.33;93571.72;5135239;27;20027;-66
2024/03/28 01:21:59;;;;;;;25.08;8.27;;;;;;;10.05;80.47;93581.13;5155837;27;20414;-66
2024/03/28 01:24:25;;;;;;;17.60;8.48;;;;;;;10.05;80.66;93583.72;5153493;27;20146;-66
2024/03/28 01:26:50;;;;;;;19.63;8.43;;;;;;;9.85;81.17;93620.22;5152848;27;20084;-65
2024/03/28 01:29:16;;;;;;;21.63;8.65;;;;;;;9.76;81.84;93608.19;5117526;27;20030;-65
2024/03/28 01:31:41;;;;;;;25.42;9.38;;;;;;;9.43;83.07;93611.47;5145961;27;20434;-66
2024/03/28 01:34:06;;;;;;;22.98;9.50;;;;;;;9.46;83.45;93587.84;5135014;27;20025;-66
2024/03/28 01:36:32;;;;;;;22.80;9.32;;;;;;;9.55;83.87;93625.81;5135067;27;20484;-66
2024/03/28 01:38:57;;;;;;;20.23;10.48;;;;;;;9.38;84.18;93545.34;5138154;27;20038;-65
2024/03/28 01:41:22;;;;;;;23.13;9.40;;;;;;;9.72;84.15;93572.31;5155830;27;20087;-65
2024/03/28 01:43:48;;;;;;;29.38;11.98;;;;;;;9.61;85.27;93553.47;5155611;27;20435;-65
2024/03/28 01:46:16;;;;;;;27.80;10.85;;;;;;;9.55;86.80;93517.75;5155759;27;20034;-65
2024/03/28 01:48:42;;;;;;;26.15;11.00;;;;;;;9.51;87.40;93484.53;5171730;27;20038;-66
2024/03/28 01:51:07;;;;;;;27.48;11.00;;;;;;;9.45;87.23;93464.41;5137794;27;20035;-66
2024/03/28 01:53:32;;;;;;;24.60;9.95;;;;;;;9.40;86.88;93437.16;5117889;27;20027;-66
2024/03/28 01:55:58;;;;;;;24.30;10.10;;;;;;;9.52;87.07;93429.09;5117450;27;20030;-66
2024/03/28 01:58:23;;;;;;;24.58;9.65;;;;;;;9.63;85.91;93421.88;5149359;27;20034;-66
2024/03/28 02:00:49;;;;;;;31.75;11.02;;;;;;;9.58;85.87;93415.53;5174124;27;20109;-66
2024/03/28 02:03:15;;;;;;;32.30;10.25;;;;;;;9.78;85.00;93422.13;5138073;27;20033;-66
2024/03/28 02:05:40;;;;;;;26.60;9.48;;;;;;;9.61;85.17;93413.47;5171388;27;20471;-66
2024/03/28 02:08:05;;;;;;;20.52;8.73;;;;;;;9.80;85.16;93427.13;5155194;27;20433;-66
2024/03/28 02:10:33;;;;;;;27.85;9.20;;;;;;;9.80;84.99;93404.59;5173768;27;20045;-66
2024/03/28 02:12:59;;;;;;;26.52;10.02;;;;;;;9.73;85.26;93414.00;5138246;27;20034;-65
2024/03/28 02:15:24;;;;;;;28.05;9.50;;;;;;;9.61;85.24;93415.22;5152784;27;20492;-66
2024/03/28 02:17:49;;;;;;;22.35;9.48;;;;;;;9.75;83.83;93413.81;5137710;27;20030;-66
2024/03/28 02:20:16;;;;;;;21.70;9.30;;;;;;;9.49;84.23;93419.84;5155189;27;20042;-65
2024/03/28 02:22:42;;;;;;;25.88;10.15;;;;;;;9.31;85.15;93416.53;5120710;27;20039;-65
2024/03/28 02:25:07;;;;;;;20.60;9.25;;;;;;;9.46;84.78;93402.03;5171035;27;20038;-65
2024/03/28 02:27:34;;;;;;;21.88;9.65;;;;;;;8.87;85.56;93375.13;5137961;27;20082;-65
2024/03/28 02:30:00;;;;;;;19.60;9.30;;;;;;;9.28;85.72;93437.56;5134222;27;20027;-65
2024/03/28 02:32:26;;;;;;;24.85;9.77;;;;;;;9.14;86.85;93433.75;5116306;27;20523;-66
2024/03/28 02:34:52;;;;;;;28.13;9.90;;;;;;;9.21;86.43;93427.00;5097974;28;20027;-66
2024/03/28 02:37:17;;;;;;;27.67;9.10;;;;;;;9.11;85.40;93415.91;5148652;27;20026;-66
2024/03/28 02:39:43;;;;;;;22.70;9.70;;;;;;;9.01;86.90;93404.84;5133774;27;20050;-66
2024/03/28 02:42:08;;;;;;;23.20;10.02;;;;;;;9.00;87.20;93418.75;5117843;27;20593;-66
2024/03/28 02:44:33;;;;;;;27.38;10.20;;;;;;;9.01;86.62;93417.78;5152548;27;20026;-65
2024/03/28 02:46:59;;;;;;;27.13;10.88;;;;;;;8.88;86.55;93406.03;5116958;27;20501;-66
2024/03/28 02:49:24;;;;;;;29.98;10.57;;;;;;;8.85;86.91;93406.34;5152337;27;20030;-66
2024/03/28 02:51:50;;;;;;;28.70;11.10;;;;;;;8.94;87.01;93418.41;5141327;27;20050;-66
2024/03/28 02:54:15;;;;;;;23.40;9.75;;;;;;;8.99;87.35;93415.34;5154609;27;20034;-66
2024/03/28 02:56:40;;;;;;;24.85;9.98;;;;;;;9.02;86.98;93422.00;5137411;27;20038;-66
2024/03/28 02:59:06;;;;;;;24.95;8.95;;;;;;;9.03;86.74;93401.13;5154643;27;20030;-66
2024/03/28 03:01:33;;;;;;;30.52;10.35;;;;;;;9.14;86.34;93400.09;5169695;27;20083;-66
2024/03/28 03:03:58;;;;;;;30.23;7.93;;;;;;;9.18;86.10;93402.19;5154507;27;20030;-66
2024/03/28 03:06:24;;;;;;;31.55;8.40;;;;;;;9.32;85.94;93393.03;5173476;27;20035;-66
2024/03/28 03:08:49;;;;;;;28.73;8.38;;;;;;;9.39;84.93;93388.06;5173001;27;20437;-66
2024/03/28 03:11:15;;;;;;;23.60;8.70;;;;;;;9.42;84.83;93402.47;5152181;27;20067;-66
2024/03/28 03:13:41;;;;;;;26.42;7.10;;;;;;;9.73;83.24;93406.22;5136954;27;20030;-65
2024/03/28 03:16:06;;;;;;;27.90;7.75;;;;;;;9.81;82.74;93388.09;5154483;27;20026;-65
2024/03/28 03:18:34;;;;;;;17.63;6.85;;;;;;;9.90;82.37;93401.09;5151949;27;20045;-66
2024/03/28 03:21:00;;;;;;;21.23;8.52;;;;;;;9.83;82.69;93411.25;5154992;27;20539;-66
2024/03/28 03:23:27;;;;;;;25.42;8.20;;;;;;;9.92;82.33;93418.13;5120042;27;20034;-66
2024/03/28 03:25:59;;;;;;;27.40;8.95;;;;;;;9.72;82.93;93417.56;5154521;27;20403;-66
2024/03/28 03:36:39;;;;;;;23.70;7.22;;;;;;;9.57;83.69;93424.28;5167433;27;20264;-66
2024/03/28 03:39:05;;;;;;;26.25;7.93;;;;;;;9.56;83.70;93418.28;5152037;27;20055;-66
2024/03/28 03:41:30;;;;;;;24.40;7.15;;;;;;;9.46;83.94;93419.38;5116442;27;20431;-66
2024/03/28 03:43:55;;;;;;;20.10;6.70;;;;;;;9.33;84.27;93433.56;5133510;27;20385;-66
2024/03/28 03:46:21;;;;;;;17.75;6.65;;;;;;;9.05;85.31;93421.69;5152869;27;20026;-66
2024/03/28 03:48:46;;;;;;;22.50;7.53;;;;;;;9.06;86.05;93444.88;5119192;27;20027;-66
2024/03/28 03:51:12;;;;;;;21.08;6.55;;;;;;;9.03;85.40;93428.81;5137231;27;20150;-65
2024/03/28 03:53:37;;;;;;;21.33;6.70;;;;;;;9.27;85.28;93454.06;5154502;27;20022;-65
2024/03/28 03:56:03;;;;;;;31.02;7.50;;;;;;;9.20;85.06;93463.44;5136562;27;20031;-66
2024/03/28 03:58:28;;;;;;;17.50;6.38;;;;;;;9.45;84.26;93477.38;5119767;27;20037;-65
2024/03/28 04:00:54;;;;;;;20.75;6.63;;;;;;;9.48;83.79;93474.47;5155625;27;20031;-66
2024/03/28 04:03:19;;;;;;;29.65;7.15;;;;;;;9.88;81.39;93452.28;5135573;27;20019;-66
2024/03/28 04:05:45;;;;;;;28.77;6.25;;;;;;;9.83;80.95;93429.41;5157164;27;20038;-65
2024/03/28 04:08:10;;;;;;;17.75;5.88;;;;;;;9.79;80.59;93426.31;5176090;27;20443;-65
2024/03/28 04:10:35;;;;;;;20.42;6.18;;;;;;;10.11;80.32;93455.94;5176132;27;20035;-66
2024/03/28 04:13:01;;;;;;;34.25;6.38;;;;;;;10.19;80.01;93453.38;5123412;27;20022;-66
2024/03/28 04:15:26;;;;;;;23.05;6.20;;;;;;;10.09;79.94;93457.91;5176349;27;20087;-65
2024/03/28 04:17:52;;;;;;;22.65;5.97;;;;;;;9.89;80.06;93433.16;5157392;27;20026;-65
2024/03/28 04:20:17;;;;;;;21.83;6.40;;;;;;;10.19;79.99;93455.16;5140016;27;20555;-65
2024/03/28 04:22:43;;;;;;;22.98;6.68;;;;;;;9.92;80.60;93456.19;5155384;27;20487;-65
2024/03/28 04:25:08;;;;;;;23.10;8.98;;;;;;;10.17;79.76;93491.66;5139818;27;20049;-65
2024/03/28 04:27:33;;;;;;;19.58;7.72;;;;;;;10.09;79.93;93512.38;5175906;27;20015;-65
2024/03/28 04:29:59;;;;;;;27.70;9.52;;;;;;;10.14;79.97;93535.25;5114085;27;20035;-65
2024/03/28 04:32:24;;;;;;;29.67;9.13;;;;;;;10.10;80.06;93554.72;5150068;27;20436;-66
2024/03/28 04:34:49;;;;;;;27.73;8.23;;;;;;;9.97;80.59;93553.38;5135672;27;20031;-66
2024/03/28 04:37:15;;;;;;;27.63;8.23;;;;;;;9.94;80.94;93545.06;5098662;27;20162;-65
2024/03/28 04:39:41;;;;;;;25.25;9.35;;;;;;;9.69;82.95;93539.72;5117669;27;20043;-67
2024/03/28 04:42:07;;;;;;;24.25;9.25;;;;;;;9.89;82.59;93555.91;5109945;27;20568;-67
2024/03/28 04:44:32;;;;;;;25.05;8.57;;;;;;;10.05;81.72;93568.94;5066497;27;20396;-68
2024/03/28 04:46:58;;;;;;;29.08;8.68;;;;;;;9.94;81.15;93526.91;5089439;28;20185;-67
2024/03/28 04:49:24;;;;;;;24.92;8.43;;;;;;;9.82;80.88;93534.94;5097441;28;20016;-67
2024/03/28 04:51:49;;;;;;;19.55;9.23;;;;;;;9.25;81.29;93436.09;5095466;28;20441;-67
2024/03/28 04:54:15;;;;;;;26.75;8.63;;;;;;;9.08;82.79;93468.00;5088940;28;20445;-67
2024/03/28 04:56:41;;;;;;;24.45;8.43;;;;;;;9.62;82.29;93534.34;5080847;28;20059;-66
2024/03/28 04:59:06;;;;;;;27.80;8.73;;;;;;;8.93;82.50;93447.84;5094939;28;20500;-67
2024/03/28 05:01:32;;;;;;;20.65;8.00;;;;;;;9.58;82.50;93552.94;5102203;28;20028;-67
2024/03/28 05:04:01;;;;;;;19.88;8.50;;;;;;;9.70;81.70;93575.06;5100217;28;20028;-67
2024/03/28 05:06:26;;;;;;;18.55;7.88;;;;;;;9.42;82.28;93524.28;5084694;28;20039;-67
2024/03/28 05:08:52;;;;;;;29.80;8.05;;;;;;;9.47;82.88;93564.38;5101252;28;20478;-69
2024/03/28 05:11:18;;;;;;;20.10;7.90;;;;;;;9.31;83.51;93559.88;5106479;28;20040;-67
2024/03/28 05:13:44;;;;;;;22.45;7.60;;;;;;;9.56;83.80;93560.06;5085486;28;20050;-67
2024/03/28 05:16:14;;;;;;;24.05;7.65;;;;;;;9.58;83.09;93573.66;5087683;28;20168;-67
2024/03/28 05:18:39;;;;;;;18.33;7.30;;;;;;;9.33;83.92;93529.44;5109905;28;20028;-67
2024/03/28 05:21:05;;;;;;;21.83;7.82;;;;;;;9.90;82.82;93556.72;5108974;27;20053;-66
2024/03/28 05:23:30;;;;;;;24.45;8.05;;;;;;;10.23;82.35;93579.28;5088684;28;20035;-66
2024/03/28 05:25:55;;;;;;;21.60;8.85;;;;;;;10.48;80.35;93574.22;5097589;27;20036;-66
2024/03/28 05:28:21;;;;;;;34.30;16.83;;;;;;;10.53;80.08;93595.34;5115391;27;20431;-66
2024/03/28 05:30:47;;;;;;;32.00;13.45;;;;;;;10.58;80.74;93615.63;5095892;28;20409;-66
2024/03/28 05:33:12;;;;;;;29.30;11.85;;;;;;;10.71;80.44;93655.78;5112285;27;20513;-66
2024/03/28 05:35:40;;;;;;;21.90;9.10;;;;;;;10.73;79.91;93655.66;5106159;28;20465;-66
2024/03/28 05:38:05;;;;;;;25.73;8.30;;;;;;;10.43;81.16;93656.97;5109031;28;20027;-66
2024/03/28 05:40:31;;;;;;;23.67;9.55;;;;;;;10.57;81.57;93668.56;5111796;27;20065;-66
2024/03/28 05:42:56;;;;;;;24.50;8.52;;;;;;;10.54;81.10;93659.28;5122053;27;20028;-66
2024/03/28 05:45:22;;;;;;;27.23;8.60;;;;;;;10.51;81.24;93678.59;5128306;27;20060;-66
2024/03/28 05:47:47;;;;;;;18.15;7.75;;;;;;;10.50;82.38;93668.34;5128143;27;20034;-66
2024/03/28 05:50:12;;;;;;;29.27;7.25;;;;;;;10.34;82.53;93722.78;5111831;27;20031;-66
2024/03/28 05:52:38;;;;;;;27.40;7.55;;;;;;;10.29;83.93;93672.13;5123426;27;20046;-66
2024/03/28 05:55:04;;;;;;;26.48;7.43;;;;;;;10.56;82.28;93691.13;5127996;27;20377;-67
2024/03/28 05:57:29;;;;;;;25.65;8.70;;;;;;;10.52;82.64;93715.75;5120573;27;20023;-67
2024/03/28 05:59:55;;;;;;;27.75;9.15;;;;;;;10.34;83.89;93705.41;5113058;27;20038;-67
2024/03/28 06:02:20;;;;;;;27.55;10.40;;;;;;;10.65;82.66;93723.94;5128312;27;20318;-66
2024/03/28 06:04:45;;;;;;;34.80;9.00;;;;;;;10.63;83.04;93741.44;5132894;27;20031;-66
2024/03/28 06:07:11;;;;;;;22.25;9.18;;;;;;;10.72;82.95;93778.69;5127670;27;20046;-66
2024/03/28 06:09:37;;;;;;;17.00;5.45;;;;;;;10.86;80.63;93782.50;5115765;27;20076;-66
2024/03/28 06:12:02;;;;;;;31.00;7.18;;;;;;;10.99;81.16;93832.28;5111763;27;20034;-66
2024/03/28 06:14:28;;;;;;;21.73;6.20;;;;;;;10.71;81.48;93762.28;5118313;27;20035;-66
2024/03/28 06:16:53;;;;;;;24.05;6.43;;;;;;;11.09;80.34;93819.19;5130457;27;20076;-66
2024/03/28 06:19:19;;;;;;;22.25;6.80;;;;;;;11.06;82.96;93822.91;5122171;27;20390;-66
2024/03/28 06:21:44;;;;;;;21.17;6.40;;;;;;;11.15;82.08;93831.56;5129617;27;20412;-66
2024/03/28 06:24:09;;;;;;;21.05;6.03;;;;;;;11.12;80.01;93832.69;5129017;27;20481;-66
2024/03/28 06:26:36;;;;;;;21.65;5.85;;;;;;;11.17;82.39;93817.44;5129394;27;20043;-66
2024/03/28 06:29:01;;;;;;;18.35;5.63;;;;;;;11.19;82.51;93838.88;5131323;27;20026;-67
2024/03/28 06:31:27;;;;;;;19.17;6.07;;;;;;;11.01;82.33;93832.13;5124796;27;20062;-66
2024/03/28 06:33:52;;;;;;;21.15;5.32;;;;;;;11.09;82.80;93833.00;5098634;28;20035;-66
2024/03/28 06:36:18;;;;;;;18.67;5.65;;;;;;;11.00;84.89;93817.50;5118774;27;20039;-66
2024/03/28 06:38:43;;;;;;;24.52;5.90;;;;;;;10.81;84.35;93815.91;5129107;27;20039;-66
2024/03/28 06:41:08;;;;;;;20.63;4.95;;;;;;;10.95;83.12;93828.38;5121745;27;20039;-66
2024/03/28 06:43:34;;;;;;;20.02;4.60;;;;;;;11.06;80.25;93812.50;5089501;28;20016;-66
2024/03/28 06:46:00;;;;;;;16.02;5.00;;;;;;;10.97;81.19;93805.63;5083784;28;20036;-66
2024/03/28 06:48:26;;;;;;;21.92;3.40;;;;;;;11.13;77.76;93836.91;5100882;28;20031;-66
2024/03/28 06:50:53;;;;;;;17.42;3.40;;;;;;;11.28;75.57;93855.38;5111190;28;20090;-67
2024/03/28 06:53:22;;;;;;;14.85;2.65;;;;;;;11.27;72.55;93863.31;5099267;28;20039;-66
2024/03/28 06:55:47;;;;;;;18.05;3.42;;;;;;;11.29;70.55;93866.56;5105634;28;20028;-66
2024/03/28 06:58:12;;;;;;;19.35;2.85;;;;;;;11.50;67.82;93850.56;5119705;27;20026;-66
2024/03/28 07:00:38;;;;;;;16.75;2.30;;;;;;;11.41;66.28;93803.72;5093838;28;20421;-68
2024/03/28 07:03:04;;;;;;;18.85;2.70;;;;;;;11.66;67.20;93795.19;5089454;28;20043;-67
2024/03/28 07:05:29;;;;;;;19.45;2.30;;;;;;;11.80;63.66;93778.97;5106147;28;20428;-67
2024/03/28 07:07:54;;;;;;;18.92;2.42;;;;;;;12.00;61.11;93818.56;5092836;28;20027;-67
2024/03/28 07:10:20;;;;;;;15.75;3.40;;;;;;;12.22;62.40;93848.38;5096607;28;20417;-70
2024/03/28 07:12:46;;;;;;;19.88;2.90;;;;;;;12.62;61.48;93858.03;5108280;28;20563;-68
2024/03/28 07:15:11;;;;;;;13.75;2.15;;;;;;;12.84;58.90;93842.72;5087929;28;20038;-68
2024/03/28 07:17:37;;;;;;;21.08;4.38;;;;;;;12.96;59.95;93880.50;5108638;28;20032;-67
2024/03/28 07:20:03;;;;;;;21.98;3.58;;;;;;;12.93;59.44;93901.69;5102887;28;20028;-67
2024/03/28 07:22:29;;;;;;;16.08;2.20;;;;;;;13.36;59.63;93926.59;5110833;27;20020;-68
2024/03/28 07:24:55;;;;;;;15.80;2.40;;;;;;;13.98;58.43;93946.84;5110005;28;20020;-74
2024/03/28 07:27:22;;;;;;;15.43;3.10;;;;;;;14.28;58.53;93963.53;5090600;28;20113;-69
2024/03/28 07:29:47;;;;;;;15.63;2.25;;;;;;;14.36;56.98;93954.03;5127512;27;20084;-70
2024/03/28 07:32:13;;;;;;;21.33;2.78;;;;;;;14.33;56.04;93962.22;5116107;27;20039;-68
2024/03/28 07:34:38;;;;;;;12.95;2.53;;;;;;;14.40;55.95;93953.53;5111776;27;20224;-67
2024/03/28 07:37:04;;;;;;;10.98;2.60;;;;;;;14.69;53.89;93946.88;5113997;27;20020;-70
2024/03/28 07:39:29;;;;;;;16.33;3.63;;;;;;;15.11;59.95;93998.72;5119470;27;20416;-67
2024/03/28 07:41:54;;;;;;;14.32;3.42;;;;;;;15.21;61.95;94003.72;5116325;27;20397;-69
2024/03/28 07:44:20;;;;;;;15.95;3.25;;;;;;;15.35;61.36;94002.97;5127246;27;20635;-69
2024/03/28 07:46:45;;;;;;;18.33;3.60;;;;;;;15.16;60.48;93993.78;5124576;27;20045;-68
2024/03/28 07:49:11;;;;;;;18.15;3.28;;;;;;;15.01;60.05;93992.91;5132831;27;20031;-68
2024/03/28 07:51:36;;;;;;;15.95;4.40;;;;;;;15.00;61.35;94006.97;5133033;27;20039;-69
2024/03/28 07:54:02;;;;;;;19.60;3.50;;;;;;;15.27;58.25;94013.50;5109277;28;20023;-68
2024/03/28 07:56:28;;;;;;;14.13;2.95;;;;;;;15.82;54.43;94019.44;5133131;27;20023;-68
2024/03/28 07:58:54;;;;;;;12.15;2.78;;;;;;;15.76;56.84;94007.88;5131539;27;20543;-70
2024/03/28 08:01:19;;;;;;;18.05;2.72;;;;;;;15.83;55.83;94008.78;5111687;27;20031;-68
2024/03/28 08:03:44;;;;;;;16.23;3.70;;;;;;;15.66;56.79;93999.44;5131229;27;20323;-69
2024/03/28 08:06:11;;;;;;;18.65;3.58;;;;;;;16.09;55.31;93992.63;5129958;27;20042;-69
2024/03/28 08:08:36;;;;;;;19.77;3.15;;;;;;;16.43;54.42;93975.53;5112773;27;20425;-68
2024/03/28 08:11:02;;;;;;;21.27;2.95;;;;;;;16.32;51.19;93981.25;5113275;27;20095;-67
2024/03/28 08:13:27;;;;;;;16.95;2.50;;;;;;;16.37;47.15;93984.13;5115455;27;20145;-69
2024/03/28 08:15:54;;;;;;;19.15;3.42;;;;;;;16.61;46.69;93988.25;5113643;27;20413;-71
2024/03/28 08:18:19;;;;;;;15.52;2.72;;;;;;;16.63;44.72;93970.56;5103088;27;20085;-67
2024/03/28 08:20:45;;;;;;;18.88;2.50;;;;;;;16.73;44.56;93970.25;5132180;27;20232;-67
2024/03/28 08:23:11;;;;;;;18.20;2.35;;;;;;;16.88;43.39;93992.03;5129003;27;20031;-67
2024/03/28 08:25:36;;;;;;;22.48;2.97;;;;;;;16.93;44.07;93994.09;5114337;27;20053;-68
2024/03/28 08:28:02;;;;;;;16.33;2.97;;;;;;;16.82;43.96;93989.31;5130585;27;20019;-67
2024/03/28 08:30:27;;;;;;;17.50;3.95;;;;;;;16.97;44.26;94000.59;5129873;27;20042;-67
2024/03/28 08:32:55;;;;;;;17.75;2.65;;;;;;;17.03;44.37;93985.94;5113144;27;20485;-67
2024/03/28 08:35:21;;;;;;;18.35;2.92;;;;;;;17.20;42.79;93985.50;5131605;27;20095;-66
2024/03/28 08:37:46;;;;;;;12.43;2.42;;;;;;;17.09;41.66;93987.81;5132172;27;20023;-66
2024/03/28 08:40:12;;;;;;;15.27;3.10;;;;;;;17.24;41.32;93985.91;5108669;27;20120;-66
2024/03/28 08:42:40;;;;;;;19.27;2.53;;;;;;;17.05;40.89;93955.06;5127996;27;20034;-66
2024/03/28 08:45:08;;;;;;;20.52;3.30;;;;;;;17.29;41.65;93952.06;5121200;27;20031;-65
2024/03/28 08:47:35;;;;;;;17.20;2.80;;;;;;;17.37;40.42;93946.66;5128890;27;20038;-66
2024/03/28 08:50:00;;;;;;;20.33;2.92;;;;;;;17.43;40.59;93952.97;5132678;27;20459;-67
2024/03/28 08:52:26;;;;;;;20.52;2.33;;;;;;;17.42;41.19;93923.28;5133552;27;20064;-66
2024/03/28 08:54:51;;;;;;;19.17;2.63;;;;;;;17.69;38.51;93923.50;5131845;27;20504;-65
2024/03/28 08:57:17;;;;;;;17.55;2.60;;;;;;;17.90;38.23;93963.84;5133860;27;20023;-66
2024/03/28 08:59:42;;;;;;;15.27;2.08;;;;;;;17.79;37.77;93952.88;5131439;27;20413;-68
2024/03/28 09:02:08;;;;;;;22.75;3.10;;;;;;;17.53;39.06;93948.22;5133676;27;20027;-67
2024/03/28 09:04:33;;;;;;;16.00;2.05;;;;;;;17.58;40.62;93921.41;5093929;27;20019;-66
2024/03/28 09:07:00;;;;;;;20.60;2.40;;;;;;;18.02;38.61;93949.16;5130545;27;20046;-68
2024/03/28 09:09:25;;;;;;;20.65;2.45;;;;;;;18.05;38.22;93946.16;5093835;27;20454;-72
2024/03/28 09:11:51;;;;;;;14.00;2.58;;;;;;;18.08;37.21;93953.69;5107106;28;20032;-68
2024/03/28 09:14:16;;;;;;;15.02;2.53;;;;;;;17.73;39.44;93935.22;5128887;27;20031;-71
2024/03/28 09:16:42;;;;;;;18.35;2.95;;;;;;;17.78;39.42;93943.38;5092196;28;20048;-68
2024/03/28 09:19:23;;;;;;;20.13;2.60;;;;;;;18.16;38.46;93940.34;5092158;27;20401;-69
2024/03/28 09:21:54;;;;;;;20.17;2.53;;;;;;;17.91;38.92;93942.63;5131041;27;20027;-69
2024/03/28 09:24:33;;;;;;;;;;;;;;;;;;;;;
2024/03/28 09:27:05;;;;;;;13.48;2.05;;;;;;;17.89;36.12;93959.63;5123592;27;20032;-68
2024/03/28 09:29:33;;;;;;;15.80;2.22;;;;;;;18.29;32.40;93965.91;5129967;27;20110;-66
2024/03/28 09:31:59;;;;;;;11.25;1.77;;;;;;;18.18;33.64;93929.66;5108169;27;20069;-67
2024/03/28 09:34:24;;;;;;;14.07;2.53;;;;;;;18.17;34.51;93951.69;5102456;27;20509;-67
2024/03/28 09:36:50;;;;;;;12.98;1.60;;;;;;;18.49;33.75;93973.88;5109763;27;20477;-72
2024/03/28 09:39:16;;;;;;;20.10;3.05;;;;;;;18.41;33.09;93969.59;5125518;27;20055;-67
2024/03/28 09:41:45;;;;;;;17.08;2.13;;;;;;;18.86;33.23;93964.75;5130826;27;20450;-66
2024/03/28 09:44:20;;;;;;;11.55;1.90;;;;;;;18.59;33.43;93958.56;5131100;27;20031;-69
2024/03/28 09:46:49;;;;;;;17.83;2.35;;;;;;;18.12;34.53;93970.66;5131430;27;20039;-67
2024/03/28 09:49:17;;;;;;;16.67;2.20;;;;;;;18.70;34.19;93984.28;5097294;27;20039;-68
2024/03/28 09:51:43;;;;;;;18.50;2.72;;;;;;;18.36;36.95;93981.69;5114146;27;20038;-65
2024/03/28 09:54:09;;;;;;;15.15;2.40;;;;;;;18.69;35.00;93971.31;5114323;27;20034;-68
2024/03/28 09:56:35;;;;;;;13.65;2.10;;;;;;;18.83;34.24;93961.69;5131476;27;20402;-66
2024/03/28 09:59:01;;;;;;;11.75;1.88;;;;;;;19.12;32.79;93984.25;5129690;27;20031;-67
2024/03/28 10:01:28;;;;;;;17.15;2.22;;;;;;;19.27;32.74;93994.59;5130017;27;20519;-66
2024/03/28 10:04:08;;;;;;;22.10;2.97;;;;;;;18.92;33.93;93965.78;5111384;27;20023;-68
2024/03/28 10:06:35;;;;;;;18.58;3.55;;;;;;;19.27;34.49;93978.78;5102086;27;20622;-66
2024/03/28 10:09:01;;;;;;;27.02;3.45;;;;;;;19.27;34.14;93994.59;5126686;27;20032;-66
2024/03/28 10:11:26;;;;;;;18.23;2.80;;;;;;;18.87;34.67;94000.56;5113639;27;20618;-66
2024/03/28 10:13:52;;;;;;;14.23;2.85;;;;;;;18.82;33.97;94002.16;5131716;27;20015;-66
2024/03/28 10:16:22;;;;;;;22.38;2.92;;;;;;;18.98;34.32;94007.09;5129013;27;20292;-66
2024/03/28 10:18:47;;;;;;;15.00;2.00;;;;;;;19.36;31.86;93994.22;5102349;27;20039;-68
2024/03/28 10:21:18;;;;;;;18.77;2.25;;;;;;;19.31;33.23;93985.28;5111406;27;20031;-67
2024/03/28 10:23:44;;;;;;;14.18;2.08;;;;;;;19.20;31.33;93989.31;5128147;27;20507;-66
2024/03/28 10:26:09;;;;;;;21.23;2.55;;;;;;;19.02;32.47;93987.25;5129516;27;20039;-66
2024/03/28 10:28:36;;;;;;;16.60;2.38;;;;;;;19.09;31.25;93997.81;5108233;28;20469;-66
2024/03/28 10:31:02;;;;;;;9.82;1.40;;;;;;;19.04;33.94;93995.75;5108811;28;20050;-66
2024/03/28 10:33:31;;;;;;;13.10;2.00;;;;;;;19.29;31.63;93998.66;5095256;27;20015;-67
2024/03/28 10:36:01;;;;;;;10.98;1.95;;;;;;;19.71;29.03;93998.50;5129565;27;20027;-66
2024/03/28 10:38:26;;;;;;;12.27;1.75;;;;;;;19.34;27.82;93998.06;5132887;27;20023;-66
2024/03/28 10:40:55;;;;;;;15.55;3.13;;;;;;;19.33;30.30;94004.31;5152741;27;20034;-67
2024/03/28 10:43:23;;;;;;;11.68;1.92;;;;;;;19.26;28.85;93985.09;5134282;27;20034;-66
2024/03/28 10:45:49;;;;;;;9.65;2.10;;;;;;;19.74;30.19;93998.09;5113410;28;20031;-66
2024/03/28 10:48:15;;;;;;;11.80;1.63;;;;;;;19.67;29.84;93994.66;5113486;28;20026;-66
2024/03/28 10:51:00;;;;;;;10.63;2.38;;;;;;;19.71;29.72;93986.16;5131019;27;20038;-66
2024/03/28 10:53:41;;;;;;;13.00;2.03;;;;;;;19.88;29.09;93997.09;5135894;27;20031;-66
2024/03/28 10:56:12;;;;;;;14.55;2.38;;;;;;;19.81;28.82;93996.28;5133855;27;20046;-66
2024/03/28 10:58:37;;;;;;;13.75;2.05;;;;;;;19.30;30.29;93997.63;5137420;27;20023;-66
2024/03/28 11:01:03;;;;;;;16.17;2.05;;;;;;;19.16;31.46;93999.41;5138284;27;20061;-66
2024/03/28 11:03:30;;;;;;;14.55;1.90;;;;;;;19.19;31.67;94000.84;5138158;27;20147;-67
2024/03/28 11:05:58;;;;;;;12.35;1.83;;;;;;;19.24;31.73;94002.88;5120741;27;20038;-66
2024/03/28 11:08:23;;;;;;;11.75;1.85;;;;;;;19.23;32.19;94009.97;5138344;27;20026;-66
2024/03/28 11:10:49;;;;;;;15.93;2.08;;;;;;;19.35;28.53;93987.31;5137745;27;20027;-66
2024/03/28 11:13:14;;;;;;;11.73;1.67;;;;;;;19.51;30.53;93995.84;5120938;27;20056;-66
2024/03/28 11:15:39;;;;;;;12.57;2.13;;;;;;;19.66;30.35;93993.84;5137704;27;20071;-66
2024/03/28 11:18:05;;;;;;;14.90;1.90;;;;;;;19.63;30.58;93994.22;5120591;27;20022;-66
2024/03/28 11:20:30;;;;;;;9.98;1.70;;;;;;;19.63;30.31;93989.75;5137573;27;20045;-66
2024/03/28 11:23:05;;;;;;;15.70;2.15;;;;;;;19.72;30.79;93995.66;5120531;27;20042;-66
2024/03/28 11:25:31;;;;;;;12.48;1.80;;;;;;;19.49;31.36;93998.66;5120369;27;20023;-66
2024/03/28 11:28:04;;;;;;;9.77;1.90;;;;;;;19.31;31.63;93993.19;5120548;27;20526;-66
2024/03/28 11:30:29;;;;;;;14.93;1.88;;;;;;;19.41;30.05;93986.50;5155913;27;20027;-67
2024/03/28 11:33:10;;;;;;;14.63;2.10;;;;;;;19.50;29.82;93989.78;5137419;27;20083;-66